F/V J. Louis Vincent — FQBL — position and weather

sailwx.info

Track history (hours):
 
Tides and Currents Weather Stations Pressure Air Temp Water Temp Dewpoint Dewpoint Depression Visibility Wind Speed Wind Dir Waves Ship Positions

F/V J. Louis Vincent

Last reported at 2014-Oct-21 16:27 UTC. Time now 2014-Oct-22 03:18 UTC.
Position N 43°24' E 003°42'.

Length 29 m.

Type: Fishing. MMSI: 227146600.

Date/timePositionNaut miles runAvg speedWind from/ knotsBaromVisibWave heightAir tempDewpointWater temp
2014-Oct-21 16:27N 43°24' E 003°42'1311.4
2014-Oct-21 15:18N 43°15' E 003°55'2 3.0
2014-Oct-21 14:30N 43°15' E 003°58'5 4.9
2014-Oct-21 13:26N 43°13' E 004°05'1 1.1
2014-Oct-21 12:13N 43°14' E 004°04'15 5.4
2014-Oct-21 09:23N 43°21' E 003°45'3 0.9
2014-Oct-21 06:27N 43°22' E 003°48'  
2014-Oct-14 14:32N 43°23' E 003°42'1 1.0
2014-Oct-14 13:32N 43°24' E 003°42'4 4.4
2014-Oct-14 12:33N 43°20' E 003°45'6 4.9
2014-Oct-14 11:25N 43°17' E 003°51'4 4.5
2014-Oct-14 10:26N 43°16' E 003°57'8 3.5
2014-Oct-14 08:13N 43°14' E 004°07'3 4.2
2014-Oct-14 07:27N 43°13' E 004°11'5 1.6
2014-Oct-14 04:16N 43°15' E 004°05'17 1.2
2014-Oct-13 14:10N 43°20' E 003°43'3 4.4
2014-Oct-13 13:27N 43°20' E 003°47'5 4.4
2014-Oct-13 12:21N 43°21' E 003°54'2 2.4
2014-Oct-13 11:27N 43°21' E 003°57'4 4.4
2014-Oct-13 10:34N 43°20' E 004°02'6 4.5
2014-Oct-13 09:17N 43°19' E 004°10'  
Track history (hours):
 
Tides and Currents Weather Stations Pressure Air Temp Water Temp Dewpoint Dewpoint Depression Visibility Wind Speed Wind Dir Waves Ship Positions

F/V J. Louis Vincent

Last reported at 2014-Oct-21 16:27 UTC. Time now 2014-Oct-22 03:18 UTC.
Position N 43°24' E 003°42'.

Length 29 m.

Type: Fishing. MMSI: 227146600.

Date/timePositionNaut miles runAvg speedWind from/ knotsBaromVisibWave heightAir tempDewpointWater temp
2014-Oct-21 16:27N 43°24' E 003°42'1311.4
2014-Oct-21 15:18N 43°15' E 003°55'2 3.0
2014-Oct-21 14:30N 43°15' E 003°58'5 4.9
2014-Oct-21 13:26N 43°13' E 004°05'1 1.1
2014-Oct-21 12:13N 43°14' E 004°04'15 5.4
2014-Oct-21 09:23N 43°21' E 003°45'3 0.9
2014-Oct-21 06:27N 43°22' E 003°48'  
2014-Oct-14 14:32N 43°23' E 003°42'1 1.0
2014-Oct-14 13:32N 43°24' E 003°42'4 4.4
2014-Oct-14 12:33N 43°20' E 003°45'6 4.9
2014-Oct-14 11:25N 43°17' E 003°51'4 4.5
2014-Oct-14 10:26N 43°16' E 003°57'8 3.5
2014-Oct-14 08:13N 43°14' E 004°07'3 4.2
2014-Oct-14 07:27N 43°13' E 004°11'5 1.6
2014-Oct-14 04:16N 43°15' E 004°05'17 1.2
2014-Oct-13 14:10N 43°20' E 003°43'3 4.4
2014-Oct-13 13:27N 43°20' E 003°47'5 4.4
2014-Oct-13 12:21N 43°21' E 003°54'2 2.4
2014-Oct-13 11:27N 43°21' E 003°57'4 4.4
2014-Oct-13 10:34N 43°20' E 004°02'6 4.5
2014-Oct-13 09:17N 43°19' E 004°10'  

Dump ship's entire track history